sensor_id;sensor_type;location;lat;lon;timestamp;pressure;altitude;pressure_sealevel;temperature;humidity
61109;BME280;46995;55.740;37.402;2024-03-02T00:00:05;100780.16;;;3.86;73.18
61109;BME280;46995;55.740;37.402;2024-03-02T00:02:49;100779.25;;;3.87;73.21
61109;BME280;46995;55.740;37.402;2024-03-02T00:05:16;100772.16;;;3.89;73.58
61109;BME280;46995;55.740;37.402;2024-03-02T00:07:42;100777.41;;;3.89;73.36
61109;BME280;46995;55.740;37.402;2024-03-02T00:10:08;100772.06;;;3.92;73.63
61109;BME280;46995;55.740;37.402;2024-03-02T00:12:37;100773.66;;;3.96;73.57
61109;BME280;46995;55.740;37.402;2024-03-02T00:15:46;100776.97;;;4.00;73.56
61109;BME280;46995;55.740;37.402;2024-03-02T00:17:55;100768.19;;;4.02;73.29
61109;BME280;46995;55.740;37.402;2024-03-02T00:20:22;100766.34;;;4.04;73.36
61109;BME280;46995;55.740;37.402;2024-03-02T00:22:48;100768.06;;;4.05;73.30
61109;BME280;46995;55.740;37.402;2024-03-02T00:25:14;100767.09;;;4.08;73.30
61109;BME280;46995;55.740;37.402;2024-03-02T00:27:39;100767.91;;;4.08;73.37
61109;BME280;46995;55.740;37.402;2024-03-02T00:30:26;100774.84;;;4.09;73.52
61109;BME280;46995;55.740;37.402;2024-03-02T00:32:50;100774.00;;;4.09;73.58
61109;BME280;46995;55.740;37.402;2024-03-02T00:35:18;100777.47;;;4.09;73.56
61109;BME280;46995;55.740;37.402;2024-03-02T00:37:46;100774.84;;;4.09;73.29
61109;BME280;46995;55.740;37.402;2024-03-02T00:40:11;100773.03;;;4.11;73.65
61109;BME280;46995;55.740;37.402;2024-03-02T00:42:38;100773.03;;;4.11;72.98
61109;BME280;46995;55.740;37.402;2024-03-02T00:45:07;100771.31;;;4.10;72.79
61109;BME280;46995;55.740;37.402;2024-03-02T00:47:37;100775.66;;;4.11;72.82
61109;BME280;46995;55.740;37.402;2024-03-02T00:50:03;100775.66;;;4.11;73.21
61109;BME280;46995;55.740;37.402;2024-03-02T00:52:30;100773.03;;;4.11;73.28
61109;BME280;46995;55.740;37.402;2024-03-02T00:54:56;100779.06;;;4.13;73.10
61109;BME280;46995;55.740;37.402;2024-03-02T00:57:22;100768.63;;;4.13;72.91
61109;BME280;46995;55.740;37.402;2024-03-02T00:59:51;100772.91;;;4.14;73.42
61109;BME280;46995;55.740;37.402;2024-03-02T01:02:17;100780.69;;;4.16;73.45
61109;BME280;46995;55.740;37.402;2024-03-02T01:04:45;100780.66;;;4.17;73.17
61109;BME280;46995;55.740;37.402;2024-03-02T01:07:11;100786.78;;;4.16;72.85
61109;BME280;46995;55.740;37.402;2024-03-02T01:09:36;100788.59;;;4.14;72.90
61109;BME280;46995;55.740;37.402;2024-03-02T01:12:02;100790.28;;;4.15;73.39
61109;BME280;46995;55.740;37.402;2024-03-02T01:14:29;100792.91;;;4.15;73.30
61109;BME280;46995;55.740;37.402;2024-03-02T01:16:54;100791.09;;;4.17;72.86
61109;BME280;46995;55.740;37.402;2024-03-02T01:19:20;100791.19;;;4.14;72.83
61109;BME280;46995;55.740;37.402;2024-03-02T01:21:46;100788.72;;;4.11;72.69
61109;BME280;46995;55.740;37.402;2024-03-02T01:24:12;100790.53;;;4.09;72.80
61109;BME280;46995;55.740;37.402;2024-03-02T01:26:38;100791.44;;;4.08;72.89
61109;BME280;46995;55.740;37.402;2024-03-02T01:29:04;100789.69;;;4.09;72.97
61109;BME280;46995;55.740;37.402;2024-03-02T01:31:29;100792.47;;;4.04;72.96
61109;BME280;46995;55.740;37.402;2024-03-02T01:33:55;100790.91;;;4.00;72.59
61109;BME280;46995;55.740;37.402;2024-03-02T01:36:21;100786.72;;;3.96;73.05
61109;BME280;46995;55.740;37.402;2024-03-02T01:38:46;100792.03;;;3.93;72.96
61109;BME280;46995;55.740;37.402;2024-03-02T01:41:12;100787.75;;;3.92;72.91
61109;BME280;46995;55.740;37.402;2024-03-02T01:43:38;100786.13;;;3.88;72.54
61109;BME280;46995;55.740;37.402;2024-03-02T01:46:04;100792.34;;;3.86;72.89
61109;BME280;46995;55.740;37.402;2024-03-02T01:48:29;100788.03;;;3.84;72.83
61109;BME280;46995;55.740;37.402;2024-03-02T01:50:55;100789.06;;;3.80;73.03
61109;BME280;46995;55.740;37.402;2024-03-02T01:53:20;100789.97;;;3.79;72.94
61109;BME280;46995;55.740;37.402;2024-03-02T01:55:46;100785.69;;;3.77;72.73
61109;BME280;46995;55.740;37.402;2024-03-02T01:58:12;100784.78;;;3.78;72.90
61109;BME280;46995;55.740;37.402;2024-03-02T02:00:37;100784.78;;;3.78;72.71
61109;BME280;46995;55.740;37.402;2024-03-02T02:03:04;100790.03;;;3.78;72.95
61109;BME280;46995;55.740;37.402;2024-03-02T02:05:30;100791.63;;;3.82;73.22
61109;BME280;46995;55.740;37.402;2024-03-02T02:07:56;100798.63;;;3.81;73.18
61109;BME280;46995;55.740;37.402;2024-03-02T02:10:24;100798.66;;;3.80;73.02
61109;BME280;46995;55.740;37.402;2024-03-02T02:12:49;100798.66;;;3.80;73.04
61109;BME280;46995;55.740;37.402;2024-03-02T02:15:24;100793.53;;;3.77;72.97
61109;BME280;46995;55.740;37.402;2024-03-02T02:17:50;100792.75;;;3.75;72.86
61109;BME280;46995;55.740;37.402;2024-03-02T02:20:16;100786.72;;;3.73;73.09
61109;BME280;46995;55.740;37.402;2024-03-02T02:22:52;100798.03;;;3.73;72.90
61109;BME280;46995;55.740;37.402;2024-03-02T02:25:18;100787.59;;;3.73;73.48
61109;BME280;46995;55.740;37.402;2024-03-02T02:27:44;100794.53;;;3.74;73.34
61109;BME280;46995;55.740;37.402;2024-03-02T02:30:10;100798.84;;;3.75;73.29
61109;BME280;46995;55.740;37.402;2024-03-02T02:32:36;100790.16;;;3.75;73.36
61109;BME280;46995;55.740;37.402;2024-03-02T02:35:02;100804.97;;;3.74;73.32
61109;BME280;46995;55.740;37.402;2024-03-02T02:37:29;100793.66;;;3.74;73.29
61109;BME280;46995;55.740;37.402;2024-03-02T02:39:55;100796.28;;;3.74;72.88
61109;BME280;46995;55.740;37.402;2024-03-02T02:42:20;100805.00;;;3.73;73.32
61109;BME280;46995;55.740;37.402;2024-03-02T02:44:46;100800.81;;;3.69;73.32
61109;BME280;46995;55.740;37.402;2024-03-02T02:47:11;100797.41;;;3.67;73.43
61109;BME280;46995;55.740;37.402;2024-03-02T02:49:37;100799.19;;;3.66;72.99
61109;BME280;46995;55.740;37.402;2024-03-02T02:52:03;100797.53;;;3.64;73.32
61109;BME280;46995;55.740;37.402;2024-03-02T02:54:29;100799.34;;;3.62;73.22
61109;BME280;46995;55.740;37.402;2024-03-02T02:56:54;100796.81;;;3.60;73.25
61109;BME280;46995;55.740;37.402;2024-03-02T02:59:20;100799.47;;;3.59;73.38
61109;BME280;46995;55.740;37.402;2024-03-02T03:01:46;100797.72;;;3.59;73.67
61109;BME280;46995;55.740;37.402;2024-03-02T03:04:11;100798.56;;;3.60;73.64
61109;BME280;46995;55.740;37.402;2024-03-02T03:06:37;100798.63;;;3.58;73.12
61109;BME280;46995;55.740;37.402;2024-03-02T03:09:04;100799.59;;;3.56;73.39
61109;BME280;46995;55.740;37.402;2024-03-02T03:11:30;100813.56;;;3.55;73.57
61109;BME280;46995;55.740;37.402;2024-03-02T03:13:55;100806.63;;;3.54;73.30
61109;BME280;46995;55.740;37.402;2024-03-02T03:16:21;100809.19;;;3.55;73.42
61109;BME280;46995;55.740;37.402;2024-03-02T03:18:47;100811.72;;;3.57;73.27
61109;BME280;46995;55.740;37.402;2024-03-02T03:21:12;100809.19;;;3.55;73.66
61109;BME280;46995;55.740;37.402;2024-03-02T03:23:38;100802.25;;;3.54;73.46
61109;BME280;46995;55.740;37.402;2024-03-02T03:26:03;100803.09;;;3.55;73.62
61109;BME280;46995;55.740;37.402;2024-03-02T03:28:31;100807.44;;;3.56;73.49
61109;BME280;46995;55.740;37.402;2024-03-02T03:30:56;100802.97;;;3.58;73.55
61109;BME280;46995;55.740;37.402;2024-03-02T03:33:22;100804.69;;;3.59;73.19
61109;BME280;46995;55.740;37.402;2024-03-02T03:35:47;100804.69;;;3.59;73.50
61109;BME280;46995;55.740;37.402;2024-03-02T03:38:13;100808.22;;;3.58;73.36
61109;BME280;46995;55.740;37.402;2024-03-02T03:40:39;100798.63;;;3.58;73.43
61109;BME280;46995;55.740;37.402;2024-03-02T03:43:05;100805.53;;;3.59;73.61
61109;BME280;46995;55.740;37.402;2024-03-02T03:45:30;100800.31;;;3.59;73.72
61109;BME280;46995;55.740;37.402;2024-03-02T03:47:56;100791.59;;;3.60;73.79
61109;BME280;46995;55.740;37.402;2024-03-02T03:50:22;100796.72;;;3.62;73.95
61109;BME280;46995;55.740;37.402;2024-03-02T03:52:47;100791.47;;;3.63;73.64
61109;BME280;46995;55.740;37.402;2024-03-02T03:55:14;100788.78;;;3.65;73.82
61109;BME280;46995;55.740;37.402;2024-03-02T03:57:39;100791.28;;;3.68;73.58
61109;BME280;46995;55.740;37.402;2024-03-02T04:00:06;100793.78;;;3.71;73.98
61109;BME280;46995;55.740;37.402;2024-03-02T04:02:38;100797.19;;;3.73;73.82
61109;BME280;46995;55.740;37.402;2024-03-02T04:05:04;100791.09;;;3.72;73.51
61109;BME280;46995;55.740;37.402;2024-03-02T04:07:35;100793.66;;;3.74;73.26
61109;BME280;46995;55.740;37.402;2024-03-02T04:10:06;100788.44;;;3.74;73.24
61109;BME280;46995;55.740;37.402;2024-03-02T04:12:33;100796.28;;;3.74;73.36
61109;BME280;46995;55.740;37.402;2024-03-02T04:14:59;100794.53;;;3.74;73.08
61109;BME280;46995;55.740;37.402;2024-03-02T04:17:27;100791.97;;;3.73;73.09
61109;BME280;46995;55.740;37.402;2024-03-02T04:19:52;100792.81;;;3.73;72.98
61109;BME280;46995;55.740;37.402;2024-03-02T04:22:18;100801.56;;;3.72;73.51
61109;BME280;46995;55.740;37.402;2024-03-02T04:24:43;100794.56;;;3.73;73.18
61109;BME280;46995;55.740;37.402;2024-03-02T04:27:09;100790.16;;;3.75;73.11
61109;BME280;46995;55.740;37.402;2024-03-02T04:29:35;100796.22;;;3.75;73.03
61109;BME280;46995;55.740;37.402;2024-03-02T04:32:00;100797.94;;;3.76;73.12
61109;BME280;46995;55.740;37.402;2024-03-02T04:34:26;100791.72;;;3.79;73.41
61109;BME280;46995;55.740;37.402;2024-03-02T04:36:51;100795.16;;;3.81;73.32
61109;BME280;46995;55.740;37.402;2024-03-02T04:39:17;100797.69;;;3.82;73.29
61109;BME280;46995;55.740;37.402;2024-03-02T04:41:43;100798.53;;;3.83;73.19
61109;BME280;46995;55.740;37.402;2024-03-02T04:44:08;100795.88;;;3.84;73.07
61109;BME280;46995;55.740;37.402;2024-03-02T04:46:34;100793.22;;;3.86;73.21
61109;BME280;46995;55.740;37.402;2024-03-02T04:49:00;100798.44;;;3.86;73.23
61109;BME280;46995;55.740;37.402;2024-03-02T04:51:25;100794.97;;;3.86;72.90
61109;BME280;46995;55.740;37.402;2024-03-02T04:53:51;100795.88;;;3.84;72.78
61109;BME280;46995;55.740;37.402;2024-03-02T04:56:17;100801.94;;;3.85;72.82
61109;BME280;46995;55.740;37.402;2024-03-02T04:59:05;100802.84;;;3.84;73.02
61109;BME280;46995;55.740;37.402;2024-03-02T05:01:31;100800.16;;;3.87;72.90
61109;BME280;46995;55.740;37.402;2024-03-02T05:03:58;100797.44;;;3.89;73.01
61109;BME280;46995;55.740;37.402;2024-03-02T05:06:24;100805.25;;;3.90;72.86
61109;BME280;46995;55.740;37.402;2024-03-02T05:08:49;100795.50;;;3.94;72.87
61109;BME280;46995;55.740;37.402;2024-03-02T05:11:15;100797.16;;;3.96;72.92
61109;BME280;46995;55.740;37.402;2024-03-02T05:13:59;100798.88;;;3.97;73.08
61109;BME280;46995;55.740;37.402;2024-03-02T05:16:25;100799.84;;;3.95;72.80
61109;BME280;46995;55.740;37.402;2024-03-02T05:18:50;100798.88;;;3.97;72.80
61109;BME280;46995;55.740;37.402;2024-03-02T05:21:16;100796.25;;;3.97;72.85
61109;BME280;46995;55.740;37.402;2024-03-02T05:23:41;100794.41;;;3.99;72.68
61109;BME280;46995;55.740;37.402;2024-03-02T05:26:07;100804.78;;;4.02;72.62
61109;BME280;46995;55.740;37.402;2024-03-02T05:28:33;100797.66;;;4.06;72.94
61109;BME280;46995;55.740;37.402;2024-03-02T05:30:59;100794.06;;;4.08;72.60
61109;BME280;46995;55.740;37.402;2024-03-02T05:33:24;100798.47;;;4.08;72.47
61109;BME280;46995;55.740;37.402;2024-03-02T05:35:50;100802.69;;;4.10;72.55
61109;BME280;46995;55.740;37.402;2024-03-02T05:38:15;100799.19;;;4.11;72.52
61109;BME280;46995;55.740;37.402;2024-03-02T05:40:41;100805.22;;;4.13;72.25
61109;BME280;46995;55.740;37.402;2024-03-02T05:43:07;100806.97;;;4.13;72.38
61109;BME280;46995;55.740;37.402;2024-03-02T05:45:34;100811.22;;;4.15;72.60
61109;BME280;46995;55.740;37.402;2024-03-02T05:47:59;100812.00;;;4.17;72.41
61109;BME280;46995;55.740;37.402;2024-03-02T05:50:25;100807.50;;;4.21;72.62
61109;BME280;46995;55.740;37.402;2024-03-02T05:52:50;100804.88;;;4.21;72.64
61109;BME280;46995;55.740;37.402;2024-03-02T05:55:16;100803.97;;;4.22;72.44
61109;BME280;46995;55.740;37.402;2024-03-02T05:57:44;100808.34;;;4.21;72.40
61109;BME280;46995;55.740;37.402;2024-03-02T06:00:09;100805.69;;;4.23;72.03
61109;BME280;46995;55.740;37.402;2024-03-02T06:02:39;100809.88;;;4.27;72.50
61109;BME280;46995;55.740;37.402;2024-03-02T06:05:05;100814.97;;;4.30;72.60
61109;BME280;46995;55.740;37.402;2024-03-02T06:07:32;100811.41;;;4.33;72.24
61109;BME280;46995;55.740;37.402;2024-03-02T06:09:58;100820.03;;;4.35;72.26
61109;BME280;46995;55.740;37.402;2024-03-02T06:12:23;100819.91;;;4.38;72.22
61109;BME280;46995;55.740;37.402;2024-03-02T06:14:49;100817.16;;;4.41;72.13
61109;BME280;46995;55.740;37.402;2024-03-02T06:17:15;100810.22;;;4.40;71.78
61109;BME280;46995;55.740;37.402;2024-03-02T06:19:40;100818.22;;;4.37;71.85
61109;BME280;46995;55.740;37.402;2024-03-02T06:22:06;100817.31;;;4.38;72.08
61109;BME280;46995;55.740;37.402;2024-03-02T06:24:36;100817.25;;;4.39;71.86
61109;BME280;46995;55.740;37.402;2024-03-02T06:27:01;100813.63;;;4.42;71.68
61109;BME280;46995;55.740;37.402;2024-03-02T06:29:27;100817.06;;;4.44;71.76
61109;BME280;46995;55.740;37.402;2024-03-02T06:31:53;100815.16;;;4.47;71.80
61109;BME280;46995;55.740;37.402;2024-03-02T06:34:18;100823.00;;;4.47;71.71
61109;BME280;46995;55.740;37.402;2024-03-02T06:36:44;100827.53;;;4.44;71.83
61109;BME280;46995;55.740;37.402;2024-03-02T06:39:10;100824.00;;;4.45;71.64
61109;BME280;46995;55.740;37.402;2024-03-02T06:41:37;100820.38;;;4.47;72.07
61109;BME280;46995;55.740;37.402;2024-03-02T06:44:03;100814.13;;;4.51;71.78
61109;BME280;46995;55.740;37.402;2024-03-02T06:46:29;100821.91;;;4.53;71.68
61109;BME280;46995;55.740;37.402;2024-03-02T06:48:54;100818.38;;;4.54;71.69
61109;BME280;46995;55.740;37.402;2024-03-02T06:51:20;100821.66;;;4.59;71.45
61109;BME280;46995;55.740;37.402;2024-03-02T06:53:47;100816.19;;;4.65;71.38
61109;BME280;46995;55.740;37.402;2024-03-02T06:56:12;100824.69;;;4.70;71.60
61109;BME280;46995;55.740;37.402;2024-03-02T06:58:38;100823.44;;;4.79;71.67
61109;BME280;46995;55.740;37.402;2024-03-02T07:01:04;100818.81;;;4.85;71.14
61109;BME280;46995;55.740;37.402;2024-03-02T07:03:30;100822.09;;;4.90;71.19
61109;BME280;46995;55.740;37.402;2024-03-02T07:05:55;100828.75;;;4.97;71.13
61109;BME280;46995;55.740;37.402;2024-03-02T07:08:22;100824.97;;;5.04;71.10
61109;BME280;46995;55.740;37.402;2024-03-02T07:10:48;100827.38;;;5.09;70.97
61109;BME280;46995;55.740;37.402;2024-03-02T07:13:13;100835.19;;;5.10;70.70
61109;BME280;46995;55.740;37.402;2024-03-02T07:15:39;100823.66;;;5.15;70.72
61109;BME280;46995;55.740;37.402;2024-03-02T07:18:13;100839.16;;;5.19;70.50
61109;BME280;46995;55.740;37.402;2024-03-02T07:20:39;100826.00;;;5.21;70.75
61109;BME280;46995;55.740;37.402;2024-03-02T07:23:05;100838.06;;;5.25;70.41
61109;BME280;46995;55.740;37.402;2024-03-02T07:25:31;100829.22;;;5.27;70.84
61109;BME280;46995;55.740;37.402;2024-03-02T07:27:56;100828.88;;;5.35;70.39
61109;BME280;46995;55.740;37.402;2024-03-02T07:30:22;100830.47;;;5.39;70.27
61109;BME280;46995;55.740;37.402;2024-03-02T07:32:50;100829.47;;;5.41;70.52
61109;BME280;46995;55.740;37.402;2024-03-02T07:35:16;100829.31;;;5.44;70.22
61109;BME280;46995;55.740;37.402;2024-03-02T07:37:43;100827.44;;;5.48;70.15
61109;BME280;46995;55.740;37.402;2024-03-02T07:40:09;100823.59;;;5.55;69.84
61109;BME280;46995;55.740;37.402;2024-03-02T07:42:47;100819.78;;;5.62;69.85
61109;BME280;46995;55.740;37.402;2024-03-02T07:45:12;100815.06;;;5.70;69.62
61109;BME280;46995;55.740;37.402;2024-03-02T07:47:38;100803.38;;;5.77;69.74
61109;BME280;46995;55.740;37.402;2024-03-02T07:50:04;100798.75;;;5.82;69.56
61109;BME280;46995;55.740;37.402;2024-03-02T07:52:32;100806.38;;;5.88;69.24
61109;BME280;46995;55.740;37.402;2024-03-02T07:54:57;100799.94;;;5.95;69.29
61109;BME280;46995;55.740;37.402;2024-03-02T07:57:23;100802.19;;;6.03;69.31
61109;BME280;46995;55.740;37.402;2024-03-02T07:59:49;100804.53;;;6.09;69.25
61109;BME280;46995;55.740;37.402;2024-03-02T08:02:14;100794.66;;;6.14;69.09
61109;BME280;46995;55.740;37.402;2024-03-02T08:04:40;100797.00;;;6.20;68.84
61109;BME280;46995;55.740;37.402;2024-03-02T08:07:06;100797.63;;;6.25;69.00
61109;BME280;46995;55.740;37.402;2024-03-02T08:09:32;100794.03;;;6.28;68.56
61109;BME280;46995;55.740;37.402;2024-03-02T08:11:57;100797.56;;;6.27;68.52
61109;BME280;46995;55.740;37.402;2024-03-02T08:14:23;100793.69;;;6.34;68.41
61109;BME280;46995;55.740;37.402;2024-03-02T08:16:49;100794.94;;;6.44;68.48
61109;BME280;46995;55.740;37.402;2024-03-02T08:19:15;100788.19;;;6.57;68.17
61109;BME280;46995;55.740;37.402;2024-03-02T08:21:41;100797.38;;;6.66;67.84
61109;BME280;46995;55.740;37.402;2024-03-02T08:24:08;100800.19;;;6.80;67.81
61109;BME280;46995;55.740;37.402;2024-03-02T08:26:34;100798.69;;;6.92;67.56
61109;BME280;46995;55.740;37.402;2024-03-02T08:29:00;100795.31;;;6.90;67.74
61109;BME280;46995;55.740;37.402;2024-03-02T08:31:27;100806.25;;;6.80;67.70
61109;BME280;46995;55.740;37.402;2024-03-02T08:33:53;100797.22;;;6.86;67.90
61109;BME280;46995;55.740;37.402;2024-03-02T08:36:18;100803.81;;;6.95;67.77
61109;BME280;46995;55.740;37.402;2024-03-02T08:38:45;100799.91;;;7.02;67.62
61109;BME280;46995;55.740;37.402;2024-03-02T08:41:10;100797.16;;;7.05;67.38
61109;BME280;46995;55.740;37.402;2024-03-02T08:43:38;100803.00;;;7.10;67.26
61109;BME280;46995;55.740;37.402;2024-03-02T08:46:07;100799.16;;;7.17;66.69
61109;BME280;46995;55.740;37.402;2024-03-02T08:48:34;100797.88;;;7.24;66.69
61109;BME280;46995;55.740;37.402;2024-03-02T08:50:59;100797.75;;;7.27;66.41
61109;BME280;46995;55.740;37.402;2024-03-02T08:53:25;100794.09;;;7.30;66.28
61109;BME280;46995;55.740;37.402;2024-03-02T08:55:51;100803.00;;;7.27;66.22
61109;BME280;46995;55.740;37.402;2024-03-02T08:58:17;100791.78;;;7.23;65.98
61109;BME280;46995;55.740;37.402;2024-03-02T09:00:43;100795.44;;;7.21;66.05
61109;BME280;46995;55.740;37.402;2024-03-02T09:03:09;100791.47;;;7.12;66.88
61109;BME280;46995;55.740;37.402;2024-03-02T09:05:35;100794.22;;;7.11;66.39
61109;BME280;46995;55.740;37.402;2024-03-02T09:08:01;100788.78;;;7.14;66.96
61109;BME280;46995;55.740;37.402;2024-03-02T09:10:28;100794.66;;;7.19;66.28
61109;BME280;46995;55.740;37.402;2024-03-02T09:12:54;100786.94;;;7.16;65.57
61109;BME280;46995;55.740;37.402;2024-03-02T09:15:20;100779.31;;;7.11;67.16
61109;BME280;46995;55.740;37.402;2024-03-02T09:17:50;100782.69;;;7.13;67.32
61109;BME280;46995;55.740;37.402;2024-03-02T09:20:16;100779.81;;;7.18;67.29
61109;BME280;46995;55.740;37.402;2024-03-02T09:22:42;100778.13;;;7.17;67.21
61109;BME280;46995;55.740;37.402;2024-03-02T09:25:08;100780.13;;;7.12;67.08
61109;BME280;46995;55.740;37.402;2024-03-02T09:27:38;100777.28;;;7.16;65.92
61109;BME280;46995;55.740;37.402;2024-03-02T09:30:04;100778.81;;;7.20;65.38
61109;BME280;46995;55.740;37.402;2024-03-02T09:32:31;100780.53;;;7.21;66.25
61109;BME280;46995;55.740;37.402;2024-03-02T09:34:57;100778.25;;;7.31;65.73
61109;BME280;46995;55.740;37.402;2024-03-02T09:37:23;100775.13;;;7.40;64.80
61109;BME280;46995;55.740;37.402;2024-03-02T09:39:49;100766.00;;;7.47;64.91
61109;BME280;46995;55.740;37.402;2024-03-02T09:42:36;100764.28;;;7.46;64.86
61109;BME280;46995;55.740;37.402;2024-03-02T09:45:03;100765.81;;;7.50;64.79
61109;BME280;46995;55.740;37.402;2024-03-02T09:47:29;100763.47;;;7.61;64.18
61109;BME280;46995;55.740;37.402;2024-03-02T09:49:55;100771.94;;;7.66;64.27
61109;BME280;46995;55.740;37.402;2024-03-02T09:52:22;100769.41;;;7.65;64.81
61109;BME280;46995;55.740;37.402;2024-03-02T09:54:48;100767.94;;;7.59;64.69
61109;BME280;46995;55.740;37.402;2024-03-02T09:57:15;100771.09;;;7.66;64.79
61109;BME280;46995;55.740;37.402;2024-03-02T09:59:40;100775.19;;;7.72;64.98
61109;BME280;46995;55.740;37.402;2024-03-02T10:02:07;100773.06;;;7.62;64.99
61109;BME280;46995;55.740;37.402;2024-03-02T10:04:33;100789.47;;;7.50;65.36
61109;BME280;46995;55.740;37.402;2024-03-02T10:09:39;100779.78;;;7.35;65.73
61109;BME280;46995;55.740;37.402;2024-03-02T10:12:05;100779.00;;;7.33;65.39
61109;BME280;46995;55.740;37.402;2024-03-02T10:14:31;100780.56;;;7.37;65.32
61109;BME280;46995;55.740;37.402;2024-03-02T10:17:01;100767.31;;;7.39;64.75
61109;BME280;46995;55.740;37.402;2024-03-02T10:19:27;100781.81;;;7.30;64.35
61109;BME280;46995;55.740;37.402;2024-03-02T10:21:58;100778.56;;;7.25;65.20
61109;BME280;46995;55.740;37.402;2024-03-02T10:24:24;100787.22;;;7.27;65.39
61109;BME280;46995;55.740;37.402;2024-03-02T10:26:51;100779.19;;;7.30;65.18
61109;BME280;46995;55.740;37.402;2024-03-02T10:29:16;100773.75;;;7.33;65.16
61109;BME280;46995;55.740;37.402;2024-03-02T10:31:46;100777.16;;;7.35;65.03
61109;BME280;46995;55.740;37.402;2024-03-02T10:34:12;100779.19;;;7.30;64.80
61109;BME280;46995;55.740;37.402;2024-03-02T10:36:40;100785.03;;;7.35;64.81
61109;BME280;46995;55.740;37.402;2024-03-02T10:39:06;100787.28;;;7.43;64.63
61109;BME280;46995;55.740;37.402;2024-03-02T10:41:37;100786.31;;;7.44;64.48
61109;BME280;46995;55.740;37.402;2024-03-02T10:44:04;100791.50;;;7.45;64.29
61109;BME280;46995;55.740;37.402;2024-03-02T10:46:30;100785.47;;;7.43;64.28
61109;BME280;46995;55.740;37.402;2024-03-02T10:48:56;100795.38;;;7.38;64.81
61109;BME280;46995;55.740;37.402;2024-03-02T10:51:26;100792.91;;;7.35;64.68
61109;BME280;46995;55.740;37.402;2024-03-02T10:53:54;100787.59;;;7.37;64.47
61109;BME280;46995;55.740;37.402;2024-03-02T10:56:21;100799.03;;;7.36;65.20
61109;BME280;46995;55.740;37.402;2024-03-02T10:58:51;100800.38;;;7.27;65.09
61109;BME280;46995;55.740;37.402;2024-03-02T11:01:19;100791.88;;;7.22;64.72
61109;BME280;46995;55.740;37.402;2024-03-02T11:03:45;100791.78;;;7.23;64.75
61109;BME280;46995;55.740;37.402;2024-03-02T11:06:12;100790.78;;;7.26;64.82
61109;BME280;46995;55.740;37.402;2024-03-02T11:08:38;100793.41;;;7.26;64.66
61109;BME280;46995;55.740;37.402;2024-03-02T11:11:14;100785.34;;;7.29;64.46
61109;BME280;46995;55.740;37.402;2024-03-02T11:13:40;100779.19;;;7.30;64.63
61109;BME280;46995;55.740;37.402;2024-03-02T11:16:11;100781.63;;;7.33;64.43
61109;BME280;46995;55.740;37.402;2024-03-02T11:18:39;100779.00;;;7.33;64.43
61109;BME280;46995;55.740;37.402;2024-03-02T11:21:06;100785.59;;;7.24;64.33
61109;BME280;46995;55.740;37.402;2024-03-02T11:23:32;100777.66;;;7.26;64.41
61109;BME280;46995;55.740;37.402;2024-03-02T11:28:48;100775.31;;;7.37;64.31
61109;BME280;46995;55.740;37.402;2024-03-02T11:31:15;100778.78;;;7.38;64.11
61109;BME280;46995;55.740;37.402;2024-03-02T11:33:41;100779.53;;;7.40;64.01
61109;BME280;46995;55.740;37.402;2024-03-02T11:36:08;100781.06;;;7.44;63.69
61109;BME280;46995;55.740;37.402;2024-03-02T11:38:35;100772.25;;;7.45;63.34
61109;BME280;46995;55.740;37.402;2024-03-02T11:41:04;100766.00;;;7.47;63.95
61109;BME280;46995;55.740;37.402;2024-03-02T11:43:36;100773.72;;;7.50;63.89
61109;BME280;46995;55.740;37.402;2024-03-02T11:46:04;100768.38;;;7.52;64.00
61109;BME280;46995;55.740;37.402;2024-03-02T11:48:34;100763.97;;;7.52;63.40
61109;BME280;46995;55.740;37.402;2024-03-02T11:51:03;100771.94;;;7.51;63.69
61109;BME280;46995;55.740;37.402;2024-03-02T11:53:42;100766.28;;;7.58;63.59
61109;BME280;46995;55.740;37.402;2024-03-02T11:56:09;100757.22;;;7.64;63.64
61109;BME280;46995;55.740;37.402;2024-03-02T11:58:36;100757.22;;;7.80;63.17
61109;BME280;46995;55.740;37.402;2024-03-02T12:01:03;100759.75;;;7.97;62.81
61109;BME280;46995;55.740;37.402;2024-03-02T12:03:28;100754.97;;;8.19;62.69
61109;BME280;46995;55.740;37.402;2024-03-02T12:05:54;100752.44;;;8.33;61.27
61109;BME280;46995;55.740;37.402;2024-03-02T12:08:22;100752.09;;;8.39;62.79
61109;BME280;46995;55.740;37.402;2024-03-02T12:10:55;100750.81;;;8.46;62.68
61109;BME280;46995;55.740;37.402;2024-03-02T12:13:23;100760.44;;;8.62;62.48
61109;BME280;46995;55.740;37.402;2024-03-02T12:15:52;100755.47;;;8.71;62.08
61109;BME280;46995;55.740;37.402;2024-03-02T12:18:18;100756.72;;;8.80;62.09
61109;BME280;46995;55.740;37.402;2024-03-02T12:20:44;100755.41;;;8.87;61.32
61109;BME280;46995;55.740;37.402;2024-03-02T12:23:10;100748.84;;;8.94;61.50
61109;BME280;46995;55.740;37.402;2024-03-02T12:25:36;100757.50;;;8.96;60.14
61109;BME280;46995;55.740;37.402;2024-03-02T12:28:01;100750.72;;;8.92;61.98
61109;BME280;46995;55.740;37.402;2024-03-02T12:30:31;100745.47;;;8.92;60.95
61109;BME280;46995;55.740;37.402;2024-03-02T12:32:57;100748.09;;;8.92;61.83
61109;BME280;46995;55.740;37.402;2024-03-02T12:35:24;100741.53;;;8.99;60.71
61109;BME280;46995;55.740;37.402;2024-03-02T12:37:51;100742.84;;;9.06;60.52
61109;BME280;46995;55.740;37.402;2024-03-02T12:40:17;100750.00;;;9.04;61.20
61109;BME280;46995;55.740;37.402;2024-03-02T12:42:44;100757.06;;;9.04;60.98
61109;BME280;46995;55.740;37.402;2024-03-02T12:45:10;100747.00;;;9.24;61.14
61109;BME280;46995;55.740;37.402;2024-03-02T12:47:36;100748.66;;;9.54;59.25
61109;BME280;46995;55.740;37.402;2024-03-02T12:50:06;100751.31;;;9.68;60.36
61109;BME280;46995;55.740;37.402;2024-03-02T12:52:32;100746.72;;;9.84;60.14